createdAt,value
2019-03-26T00:00:38.614Z,91.80
2019-03-26T00:03:06.237Z,93.20
2019-03-26T00:05:34.105Z,94.70
2019-03-26T00:08:01.934Z,94.80
2019-03-26T00:10:29.949Z,95.10
2019-03-26T00:12:58.166Z,95.80
2019-03-26T00:15:26.291Z,95.90
2019-03-26T00:17:57.949Z,95.60
2019-03-26T00:20:25.922Z,95.60
2019-03-26T00:22:53.646Z,95.30
2019-03-26T00:25:21.365Z,94.70
2019-03-26T00:27:49.385Z,94.30
2019-03-26T00:30:17.165Z,94.50
2019-03-26T00:32:45.409Z,95.30
2019-03-26T00:35:13.537Z,96.00
2019-03-26T00:37:41.243Z,96.20
2019-03-26T00:40:09.690Z,96.00
2019-03-26T00:42:37.262Z,96.40
2019-03-26T00:45:08.676Z,96.60
2019-03-26T00:47:36.638Z,96.60
2019-03-26T00:50:05.263Z,96.60
2019-03-26T00:52:32.936Z,95.70
2019-03-26T00:55:00.957Z,95.40
2019-03-26T00:57:28.949Z,95.60
2019-03-26T00:59:56.436Z,95.30
2019-03-26T01:02:27.771Z,95.80
2019-03-26T01:04:55.829Z,95.70
2019-03-26T01:07:23.937Z,95.20
2019-03-26T01:09:55.106Z,95.20
2019-03-26T01:12:22.971Z,95.40
2019-03-26T01:14:53.941Z,95.80
2019-03-26T01:17:21.828Z,96.30
2019-03-26T01:19:49.669Z,96.20
2019-03-26T01:22:17.562Z,95.90
2019-03-26T01:24:45.422Z,95.70
2019-03-26T01:27:13.630Z,95.30
2019-03-26T01:29:41.420Z,95.10
2019-03-26T01:32:09.300Z,95.10
2019-03-26T01:34:45.841Z,95.10
2019-03-26T01:37:30.002Z,94.90
2019-03-26T01:40:09.723Z,94.60
2019-03-26T01:42:49.820Z,94.80
2019-03-26T01:45:29.750Z,94.80
2019-03-26T01:48:09.928Z,94.80
2019-03-26T01:50:50.269Z,94.60
2019-03-26T01:53:30.768Z,94.70
2019-03-26T01:56:10.711Z,94.80
2019-03-26T01:58:50.688Z,94.50
2019-03-26T02:01:31.986Z,94.20
2019-03-26T02:04:13.972Z,94.50
2019-03-26T02:09:36.052Z,94.50
2019-03-26T02:12:14.195Z,94.60
2019-03-26T02:18:01.405Z,94.20
2019-03-26T02:20:41.349Z,93.80
2019-03-26T02:23:21.460Z,93.40
2019-03-26T02:26:01.214Z,93.80
2019-03-26T02:28:41.074Z,94.30
2019-03-26T02:31:22.293Z,94.00
2019-03-26T02:34:02.320Z,93.80
2019-03-26T02:36:42.058Z,94.20
2019-03-26T02:39:22.249Z,94.30
2019-03-26T02:42:02.281Z,94.70
2019-03-26T02:44:42.010Z,94.80
2019-03-26T02:47:21.933Z,95.90
2019-03-26T02:50:02.088Z,95.60
2019-03-26T02:52:42.225Z,95.00
2019-03-26T02:55:22.159Z,95.30
2019-03-26T02:58:01.867Z,95.70
2019-03-26T03:00:41.905Z,95.90
2019-03-26T03:03:22.067Z,95.80
2019-03-26T03:06:02.349Z,96.00
2019-03-26T03:08:42.629Z,96.00
2019-03-26T03:11:22.538Z,95.40
2019-03-26T03:14:03.076Z,94.80
2019-03-26T03:16:42.704Z,94.30
2019-03-26T03:19:22.737Z,94.60
2019-03-26T03:22:02.609Z,94.70
2019-03-26T03:24:42.768Z,94.70
2019-03-26T03:27:22.712Z,94.00
2019-03-26T03:30:03.031Z,93.90
2019-03-26T03:32:43.792Z,94.40
2019-03-26T03:35:23.630Z,94.20
2019-03-26T03:38:03.493Z,94.20
2019-03-26T03:40:43.873Z,94.00
2019-03-26T03:43:23.706Z,93.90
2019-03-26T03:46:03.846Z,93.90
2019-03-26T03:48:44.139Z,93.90
2019-03-26T03:51:24.443Z,94.30
2019-03-26T03:54:04.365Z,94.40
2019-03-26T03:56:44.580Z,94.30
2019-03-26T03:59:24.835Z,95.20
2019-03-26T04:02:04.777Z,95.70
2019-03-26T04:04:44.705Z,95.80
2019-03-26T04:07:25.025Z,96.00
2019-03-26T04:10:04.991Z,95.90
2019-03-26T04:12:44.894Z,96.30
2019-03-26T04:15:24.813Z,96.30
2019-03-26T04:18:05.409Z,95.80
2019-03-26T04:23:25.696Z,95.30
2019-03-26T04:26:05.945Z,95.40
2019-03-26T04:28:45.987Z,95.40
2019-03-26T04:31:27.001Z,95.00
2019-03-26T04:34:05.287Z,95.30
2019-03-26T04:39:58.837Z,96.60
2019-03-26T04:42:38.924Z,96.20
2019-03-26T04:45:19.170Z,95.90
2019-03-26T04:48:01.899Z,95.70
2019-03-26T04:50:41.778Z,96.10
2019-03-26T04:53:21.654Z,96.00
2019-03-26T04:56:01.424Z,96.60
2019-03-26T04:58:43.954Z,96.60
2019-03-26T05:01:23.496Z,96.60
2019-03-26T05:04:03.732Z,96.60
2019-03-26T05:06:43.974Z,96.60
2019-03-26T05:09:24.023Z,96.60
2019-03-26T05:12:04.222Z,96.60
2019-03-26T05:14:46.331Z,96.60
2019-03-26T05:17:26.111Z,96.60
2019-03-26T05:20:06.716Z,96.60
2019-03-26T05:22:46.397Z,96.50
2019-03-26T05:25:26.559Z,96.20
2019-03-26T05:28:06.428Z,96.60
2019-03-26T05:30:46.185Z,96.60
2019-03-26T05:33:26.200Z,96.60
2019-03-26T05:36:06.212Z,96.60
2019-03-26T05:38:46.262Z,96.60
2019-03-26T05:41:26.145Z,96.60
2019-03-26T05:44:06.504Z,96.60
2019-03-26T05:46:47.424Z,96.60
2019-03-26T05:49:27.660Z,96.60
2019-03-26T05:52:07.756Z,96.60
2019-03-26T05:54:46.543Z,96.60
2019-03-26T06:00:33.806Z,96.60
2019-03-26T06:03:14.045Z,96.60
2019-03-26T06:05:54.034Z,96.60
2019-03-26T06:08:33.894Z,96.60
2019-03-26T06:11:14.248Z,96.60
2019-03-26T06:13:53.987Z,96.60
2019-03-26T06:16:38.627Z,96.60
2019-03-26T06:19:16.313Z,96.60
2019-03-26T06:21:55.995Z,96.60
2019-03-26T06:24:36.108Z,96.20
2019-03-26T06:27:16.435Z,93.20
2019-03-26T06:29:56.236Z,93.10
2019-03-26T06:32:36.308Z,94.30
2019-03-26T06:35:18.591Z,92.90
2019-03-26T06:37:58.157Z,93.00
2019-03-26T06:40:38.242Z,93.00
2019-03-26T06:43:18.198Z,94.90
2019-03-26T06:45:58.016Z,92.10
2019-03-26T06:48:38.156Z,91.70
2019-03-26T06:51:16.332Z,89.80
2019-03-26T06:54:03.424Z,88.90
2019-03-26T06:56:41.452Z,90.90
2019-03-26T06:59:28.793Z,87.70
2019-03-26T07:02:09.016Z,88.80
2019-03-26T07:04:48.916Z,86.60
2019-03-26T07:07:31.919Z,85.80
2019-03-26T07:10:11.615Z,85.40
2019-03-26T07:12:51.502Z,86.50
2019-03-26T07:15:31.800Z,86.30
2019-03-26T07:18:11.511Z,87.50
2019-03-26T07:20:51.309Z,90.30
2019-03-26T07:23:31.089Z,91.70
2019-03-26T07:26:11.432Z,91.20
2019-03-26T07:28:51.352Z,92.70
2019-03-26T07:31:31.492Z,93.50
2019-03-26T07:34:11.584Z,92.90
2019-03-26T07:36:51.521Z,94.00
2019-03-26T07:39:31.563Z,91.50
2019-03-26T07:42:12.019Z,89.40
2019-03-26T07:44:52.037Z,89.30
2019-03-26T07:47:31.984Z,89.00
2019-03-26T07:50:14.004Z,88.40
2019-03-26T07:52:54.261Z,90.00
2019-03-26T07:55:34.471Z,89.30
2019-03-26T07:58:14.655Z,88.90
2019-03-26T08:00:54.892Z,89.70
2019-03-26T08:03:34.784Z,89.90
2019-03-26T08:06:14.530Z,87.20
2019-03-26T08:08:54.723Z,86.00
2019-03-26T08:11:34.735Z,83.10
2019-03-26T08:14:14.548Z,82.60
2019-03-26T08:16:54.149Z,82.20
2019-03-26T08:19:34.143Z,80.40
2019-03-26T08:22:15.357Z,81.70
2019-03-26T08:24:55.356Z,79.60
2019-03-26T08:27:35.108Z,73.50
2019-03-26T08:30:15.429Z,74.10
2019-03-26T08:32:55.175Z,75.80
2019-03-26T08:35:35.341Z,74.40
2019-03-26T08:38:15.247Z,71.20
2019-03-26T08:40:56.610Z,70.20
2019-03-26T08:43:24.561Z,66.40
2019-03-26T08:46:05.815Z,64.80
2019-03-26T08:48:45.433Z,64.60
2019-03-26T08:51:25.575Z,65.00
2019-03-26T08:54:05.451Z,59.90
2019-03-26T08:56:45.646Z,63.20
2019-03-26T08:59:25.424Z,56.80
2019-03-26T09:02:05.528Z,55.60
2019-03-26T09:04:45.707Z,53.10
2019-03-26T09:07:26.072Z,55.10
2019-03-26T09:10:06.186Z,55.20
2019-03-26T09:12:46.272Z,54.40
2019-03-26T09:15:26.273Z,56.40
2019-03-26T09:18:06.526Z,58.10
2019-03-26T09:20:46.791Z,60.10
2019-03-26T09:23:26.425Z,61.50
2019-03-26T09:26:05.688Z,62.50
2019-03-26T09:28:47.768Z,62.60
2019-03-26T09:31:27.177Z,62.90
2019-03-26T09:34:09.798Z,63.10
2019-03-26T09:36:49.217Z,62.60
2019-03-26T09:39:29.212Z,62.00
2019-03-26T09:42:09.381Z,61.30
2019-03-26T09:44:49.376Z,60.60
2019-03-26T09:47:29.614Z,59.10
2019-03-26T09:50:09.714Z,59.30
2019-03-26T09:52:49.916Z,59.60
2019-03-26T09:55:29.997Z,61.20
2019-03-26T09:58:10.040Z,61.50
2019-03-26T10:00:50.589Z,61.20
2019-03-26T10:03:31.534Z,59.30
2019-03-26T10:06:22.901Z,59.90
2019-03-26T10:08:53.324Z,59.20
2019-03-26T10:11:33.494Z,60.30
2019-03-26T10:14:13.460Z,60.20
2019-03-26T10:16:53.482Z,60.40
2019-03-26T10:19:33.664Z,60.50
2019-03-26T10:22:15.098Z,60.80
2019-03-26T10:24:55.424Z,60.20
2019-03-26T10:27:35.482Z,60.00
2019-03-26T10:30:16.118Z,60.60
2019-03-26T10:32:55.862Z,59.50
2019-03-26T10:35:35.870Z,61.00
2019-03-26T10:38:15.653Z,60.90
2019-03-26T10:40:55.824Z,61.50
2019-03-26T10:43:36.133Z,61.50
2019-03-26T10:46:16.091Z,61.40
2019-03-26T10:48:56.435Z,61.00
2019-03-26T10:51:36.365Z,60.50
2019-03-26T10:54:16.621Z,59.00
2019-03-26T10:56:56.632Z,58.60
2019-03-26T10:59:36.613Z,57.90
2019-03-26T11:02:16.416Z,57.50
2019-03-26T11:04:56.422Z,57.80
2019-03-26T11:07:36.688Z,57.60
2019-03-26T11:10:16.799Z,58.50
2019-03-26T11:12:56.729Z,61.30
2019-03-26T11:15:36.917Z,61.00
2019-03-26T11:18:17.090Z,63.80
2019-03-26T11:21:02.775Z,63.60
2019-03-26T11:23:38.965Z,63.10
2019-03-26T11:26:19.054Z,63.00
2019-03-26T11:28:59.451Z,61.40
2019-03-26T11:31:39.674Z,60.70
2019-03-26T11:34:19.515Z,60.50
2019-03-26T11:36:59.465Z,58.70
2019-03-26T11:39:39.396Z,57.20
2019-03-26T11:42:19.826Z,55.30
2019-03-26T11:44:59.691Z,54.60
2019-03-26T11:47:39.605Z,55.30
2019-03-26T11:50:19.628Z,55.50
2019-03-26T11:52:59.627Z,57.70
2019-03-26T11:55:39.781Z,58.60
2019-03-26T11:58:29.952Z,58.00
2019-03-26T12:01:01.404Z,58.60
2019-03-26T12:03:41.518Z,58.90
2019-03-26T12:06:21.702Z,58.60
2019-03-26T12:09:01.792Z,58.00
2019-03-26T12:11:43.620Z,58.10
2019-03-26T12:14:23.860Z,58.30
2019-03-26T12:17:03.768Z,57.60
2019-03-26T12:19:44.172Z,58.00
2019-03-26T12:22:24.015Z,57.30
2019-03-26T12:25:03.892Z,57.10
2019-03-26T12:27:43.939Z,57.70
2019-03-26T12:30:24.177Z,56.70
2019-03-26T12:33:04.700Z,56.30
2019-03-26T12:35:44.516Z,58.40
2019-03-26T12:38:24.324Z,57.60
2019-03-26T12:41:04.667Z,57.60
2019-03-26T12:43:44.606Z,56.20
2019-03-26T12:46:24.799Z,57.20
2019-03-26T12:49:04.885Z,57.30
2019-03-26T12:51:44.837Z,55.80
2019-03-26T12:54:24.912Z,54.40
2019-03-26T12:57:04.912Z,54.40
2019-03-26T12:59:46.263Z,55.40
2019-03-26T13:02:26.137Z,55.10
2019-03-26T13:05:06.253Z,55.80
2019-03-26T13:07:46.256Z,56.70
2019-03-26T13:10:26.635Z,56.00
2019-03-26T13:15:46.952Z,49.90
2019-03-26T13:18:26.975Z,50.30
2019-03-26T13:21:08.027Z,49.70
2019-03-26T13:23:48.373Z,48.10
2019-03-26T13:26:28.148Z,50.20
2019-03-26T13:29:07.915Z,53.40
2019-03-26T13:31:47.398Z,54.70
2019-03-26T13:34:27.679Z,54.80
2019-03-26T13:37:07.440Z,55.60
2019-03-26T13:39:47.460Z,56.00
2019-03-26T13:42:27.882Z,56.00
2019-03-26T13:45:07.702Z,57.20
2019-03-26T13:47:47.944Z,56.80
2019-03-26T13:50:27.913Z,56.70
2019-03-26T13:53:08.780Z,57.00
2019-03-26T13:55:48.787Z,56.80
2019-03-26T13:58:28.330Z,55.90
2019-03-26T14:01:08.802Z,56.00
2019-03-26T14:03:48.995Z,56.50
2019-03-26T14:06:28.819Z,56.10
2019-03-26T14:09:08.326Z,55.40
2019-03-26T14:11:48.715Z,54.60
2019-03-26T14:14:28.666Z,54.20
2019-03-26T14:17:08.820Z,54.10
2019-03-26T14:19:48.676Z,54.20
2019-03-26T14:22:28.835Z,53.90
2019-03-26T14:25:08.881Z,52.70
2019-03-26T14:27:48.860Z,53.30
2019-03-26T14:30:28.616Z,52.10
2019-03-26T14:33:08.713Z,50.80
2019-03-26T14:35:49.002Z,51.30
2019-03-26T14:38:28.980Z,50.10
2019-03-26T14:41:08.757Z,48.40
2019-03-26T14:43:48.877Z,44.50
2019-03-26T14:46:29.658Z,45.60
2019-03-26T14:49:09.702Z,46.50
2019-03-26T14:51:49.411Z,45.30
2019-03-26T14:54:29.377Z,45.70
2019-03-26T14:57:09.528Z,47.00
2019-03-26T14:59:49.720Z,48.30
2019-03-26T15:02:29.512Z,48.30
2019-03-26T15:05:09.617Z,49.20
2019-03-26T15:07:49.798Z,49.10
2019-03-26T15:10:30.013Z,50.20
2019-03-26T15:13:10.031Z,50.20
2019-03-26T15:15:49.869Z,50.50
2019-03-26T15:18:30.040Z,50.60
2019-03-26T15:21:10.233Z,50.00
2019-03-26T15:23:50.087Z,49.40
2019-03-26T15:26:30.212Z,49.50
2019-03-26T15:29:10.588Z,50.80
2019-03-26T15:31:50.620Z,52.10
2019-03-26T15:34:36.059Z,52.30
2019-03-26T15:37:12.692Z,52.20
2019-03-26T15:39:53.006Z,52.80
2019-03-26T15:42:32.887Z,53.20
2019-03-26T15:45:13.276Z,53.80
2019-03-26T15:47:53.335Z,53.60
2019-03-26T15:50:34.269Z,53.40
2019-03-26T15:53:14.284Z,54.20
2019-03-26T15:55:54.385Z,54.70
2019-03-26T15:58:34.445Z,55.40
2019-03-26T16:01:13.966Z,55.70
2019-03-26T16:03:54.280Z,55.30
2019-03-26T16:06:34.634Z,55.50
2019-03-26T16:09:14.455Z,56.40
2019-03-26T16:11:54.189Z,56.80
2019-03-26T16:14:34.364Z,56.20
2019-03-26T16:17:14.629Z,56.30
2019-03-26T16:19:54.655Z,57.10
2019-03-26T16:22:34.768Z,58.00
2019-03-26T16:25:15.130Z,57.40
2019-03-26T16:27:55.403Z,57.30
2019-03-26T16:30:36.622Z,58.10
2019-03-26T16:33:17.376Z,58.10
2019-03-26T16:35:57.332Z,58.20
2019-03-26T16:38:37.370Z,58.20
2019-03-26T16:41:17.304Z,58.30
2019-03-26T16:43:57.450Z,58.60
2019-03-26T16:46:37.365Z,59.30
2019-03-26T16:49:17.828Z,59.70
2019-03-26T16:51:57.535Z,59.80
2019-03-26T16:54:37.828Z,60.20
2019-03-26T16:57:18.003Z,60.80
2019-03-26T16:59:58.252Z,61.30
2019-03-26T17:02:38.118Z,60.90
2019-03-26T17:05:18.454Z,62.00
2019-03-26T17:07:58.572Z,61.90
2019-03-26T17:10:39.805Z,62.30
2019-03-26T17:13:19.734Z,62.50
2019-03-26T17:16:00.211Z,62.50
2019-03-26T17:18:40.509Z,62.00
2019-03-26T17:21:20.876Z,63.30
2019-03-26T17:24:00.979Z,63.70
2019-03-26T17:26:41.138Z,64.00
2019-03-26T17:29:21.773Z,64.20
2019-03-26T17:32:01.729Z,64.00
2019-03-26T17:34:43.145Z,64.50
2019-03-26T17:37:22.796Z,64.50
2019-03-26T17:40:02.813Z,64.50
2019-03-26T17:42:43.713Z,64.70
2019-03-26T17:45:23.394Z,64.80
2019-03-26T17:48:03.167Z,65.10
2019-03-26T17:50:43.406Z,65.40
2019-03-26T17:53:23.357Z,65.80
2019-03-26T17:58:50.434Z,66.70
2019-03-26T18:01:29.991Z,67.00
2019-03-26T18:04:10.038Z,67.80
2019-03-26T18:06:49.972Z,68.30
2019-03-26T18:09:29.806Z,69.00
2019-03-26T18:12:09.909Z,69.70
2019-03-26T18:14:51.440Z,70.30
2019-03-26T18:17:31.163Z,70.80
2019-03-26T18:20:11.365Z,71.10
2019-03-26T18:22:51.313Z,71.10
2019-03-26T18:25:31.442Z,71.20
2019-03-26T18:28:11.624Z,71.30
2019-03-26T18:30:51.589Z,71.60
2019-03-26T18:33:31.340Z,71.50
2019-03-26T18:36:11.217Z,71.90
2019-03-26T18:38:51.347Z,72.10
2019-03-26T18:41:31.583Z,72.90
2019-03-26T18:44:11.620Z,73.20
2019-03-26T18:46:51.427Z,73.90
2019-03-26T18:49:31.453Z,74.20
2019-03-26T18:52:11.422Z,74.60
2019-03-26T18:54:51.018Z,74.70
2019-03-26T18:57:31.497Z,74.90
2019-03-26T19:00:11.431Z,75.30
2019-03-26T19:02:52.488Z,75.10
2019-03-26T19:05:32.558Z,75.80
2019-03-26T19:08:12.861Z,76.30
2019-03-26T19:10:52.660Z,76.40
2019-03-26T19:13:32.415Z,76.70
2019-03-26T19:16:12.928Z,77.00
2019-03-26T19:18:52.721Z,77.40
2019-03-26T19:21:32.930Z,77.40
2019-03-26T19:24:12.978Z,78.10
2019-03-26T19:26:52.875Z,78.30
2019-03-26T19:32:12.766Z,78.30
2019-03-26T19:34:54.151Z,78.80
2019-03-26T19:37:34.502Z,79.20
2019-03-26T19:42:54.301Z,79.00
2019-03-26T19:45:35.146Z,78.90
2019-03-26T19:48:14.838Z,78.60
2019-03-26T19:50:55.105Z,78.40
2019-03-26T19:53:35.342Z,78.30
2019-03-26T19:56:15.393Z,78.20
2019-03-26T19:58:55.991Z,78.20
2019-03-26T20:01:35.508Z,78.30
2019-03-26T20:04:16.102Z,78.40
2019-03-26T20:06:56.384Z,78.20
2019-03-26T20:09:36.724Z,78.50
2019-03-26T20:12:16.230Z,78.80
2019-03-26T20:14:56.298Z,79.40
2019-03-26T20:17:36.460Z,79.50
2019-03-26T20:20:16.679Z,79.70
2019-03-26T20:22:56.638Z,79.90
2019-03-26T20:25:36.874Z,80.50
2019-03-26T20:28:16.968Z,80.50
2019-03-26T20:30:56.642Z,80.40
2019-03-26T20:33:36.778Z,80.60
2019-03-26T20:36:16.584Z,80.80
2019-03-26T20:38:57.791Z,81.30
2019-03-26T20:41:37.482Z,81.60
2019-03-26T20:44:17.984Z,81.80
2019-03-26T20:46:57.698Z,81.80
2019-03-26T20:49:37.635Z,81.90
2019-03-26T20:52:17.672Z,82.00
2019-03-26T20:54:57.767Z,82.30
2019-03-26T20:57:37.637Z,82.40
2019-03-26T21:02:59.260Z,81.90
2019-03-26T21:05:39.257Z,81.50
2019-03-26T21:08:19.351Z,81.50
2019-03-26T21:10:59.165Z,81.60
2019-03-26T21:13:50.183Z,82.10
2019-03-26T21:16:21.660Z,82.10
2019-03-26T21:19:01.720Z,83.00
2019-03-26T21:21:41.992Z,82.80
2019-03-26T21:24:21.938Z,83.00
2019-03-26T21:27:02.179Z,83.00
2019-03-26T21:29:42.412Z,82.20
2019-03-26T21:32:22.365Z,82.20
2019-03-26T21:35:02.376Z,82.20
2019-03-26T21:37:42.368Z,82.30
2019-03-26T21:40:22.484Z,81.70
2019-03-26T21:43:05.533Z,81.70
2019-03-26T21:45:45.763Z,81.70
2019-03-26T21:48:25.638Z,81.70
2019-03-26T21:51:06.872Z,81.90
2019-03-26T21:53:46.787Z,82.40
2019-03-26T21:56:27.152Z,82.60
2019-03-26T21:59:07.900Z,82.60
2019-03-26T22:01:48.245Z,82.30
2019-03-26T22:04:28.408Z,81.80
2019-03-26T22:07:08.520Z,82.20
2019-03-26T22:09:48.437Z,81.90
2019-03-26T22:12:28.638Z,82.30
2019-03-26T22:15:08.837Z,82.20
2019-03-26T22:17:49.099Z,82.20
2019-03-26T22:20:28.787Z,81.80
2019-03-26T22:23:09.012Z,81.30
2019-03-26T22:25:48.912Z,81.50
2019-03-26T22:28:28.654Z,81.30
2019-03-26T22:31:08.773Z,81.50
2019-03-26T22:33:48.937Z,81.50
2019-03-26T22:36:28.976Z,81.50
2019-03-26T22:39:09.065Z,81.70
2019-03-26T22:41:49.107Z,81.50
2019-03-26T22:44:31.532Z,81.80
2019-03-26T22:47:11.444Z,81.90
2019-03-26T22:49:51.621Z,82.10
2019-03-26T22:52:31.790Z,82.30
2019-03-26T22:55:11.741Z,83.10
2019-03-26T22:57:51.904Z,83.60
2019-03-26T23:00:35.149Z,83.90
2019-03-26T23:03:16.391Z,84.10
2019-03-26T23:05:56.310Z,83.90
2019-03-26T23:08:36.477Z,84.00
2019-03-26T23:11:16.627Z,84.10
2019-03-26T23:13:56.437Z,84.00
2019-03-26T23:16:36.656Z,83.90
2019-03-26T23:19:16.859Z,84.00
2019-03-26T23:21:57.036Z,84.10
2019-03-26T23:24:37.002Z,83.90
2019-03-26T23:27:16.735Z,83.90
2019-03-26T23:29:56.704Z,84.20
2019-03-26T23:32:36.489Z,84.40
2019-03-26T23:35:16.580Z,84.30
2019-03-26T23:37:56.476Z,84.00
2019-03-26T23:40:36.633Z,83.80
2019-03-26T23:43:16.740Z,84.00
2019-03-26T23:45:54.892Z,84.20
2019-03-26T23:48:41.909Z,84.10
2019-03-26T23:51:22.184Z,84.10
2019-03-26T23:54:02.231Z,84.00
2019-03-26T23:56:42.623Z,83.60
2019-03-26T23:59:22.790Z,83.20
